Time;durP1;ratioP1;P1;durP2;ratioP2;P2;SDS_P1;SDS_P2;PMS_P1;PMS_P2;Temp;Humidity;BMP_temperature;BMP_pressure;BME280_temperature;BME280_humidity;BME280_pressure;Samples;Min_cycle;Max_cycle;Signal;HPM_P1;HPM_P2
2022/02/12 00:02:13;;;;;;;0.70;0.55;;;22.30;45.60;;;;;;4996626;28;20042;-70
2022/02/12 00:04:39;;;;;;;0.90;0.75;;;22.30;45.60;;;;;;4995544;28;20364;-69
2022/02/12 00:07:05;;;;;;;0.88;0.77;;;22.30;45.60;;;;;;4997574;28;20026;-69
2022/02/12 00:09:30;;;;;;;1.38;0.73;;;22.20;45.60;;;;;;4996074;28;20036;-69
2022/02/12 00:11:56;;;;;;;1.17;0.77;;;22.20;45.60;;;;;;4996317;28;20026;-70
2022/02/12 00:14:23;;;;;;;0.70;0.60;;;22.20;45.60;;;;;;4996721;28;20037;-67
2022/02/12 00:16:48;;;;;;;1.63;0.80;;;22.20;45.60;;;;;;4995220;28;20042;-70
2022/02/12 00:19:14;;;;;;;0.60;0.60;;;22.10;45.60;;;;;;4995282;28;20041;-69
2022/02/12 00:21:40;;;;;;;1.15;0.80;;;22.10;45.60;;;;;;4996310;28;20060;-69
2022/02/12 00:24:06;;;;;;;1.10;0.65;;;22.10;45.60;;;;;;4994702;28;20094;-69
2022/02/12 00:26:31;;;;;;;0.75;0.65;;;22.10;45.60;;;;;;5012904;28;20030;-70
2022/02/12 00:28:57;;;;;;;1.05;0.70;;;22.00;45.60;;;;;;4994100;28;20044;-70
2022/02/12 00:31:23;;;;;;;1.20;0.70;;;22.00;45.70;;;;;;4994522;28;20035;-69
2022/02/12 00:33:48;;;;;;;1.00;0.63;;;22.00;45.70;;;;;;4995225;28;20038;-69
2022/02/12 00:36:14;;;;;;;0.80;0.75;;;22.00;45.70;;;;;;4998549;28;20131;-66
2022/02/12 00:38:40;;;;;;;0.90;0.68;;;22.00;45.80;;;;;;4996066;28;20072;-69
2022/02/12 00:41:05;;;;;;;1.60;0.70;;;22.00;45.80;;;;;;4995358;28;20029;-69
2022/02/12 00:43:31;;;;;;;1.15;0.70;;;21.90;45.80;;;;;;4996035;28;20399;-69
2022/02/12 00:45:57;;;;;;;0.98;0.50;;;21.90;45.80;;;;;;5008726;28;20023;-70
2022/02/12 00:48:23;;;;;;;1.00;0.70;;;21.90;45.80;;;;;;4993841;28;20026;-69
2022/02/12 00:50:48;;;;;;;0.60;0.60;;;21.90;45.80;;;;;;4995484;28;20033;-70
2022/02/12 00:53:14;;;;;;;0.60;0.60;;;21.90;45.80;;;;;;4996731;28;20034;-69
2022/02/12 00:55:40;;;;;;;1.05;0.68;;;21.90;45.80;;;;;;4997215;28;20052;-70
2022/02/12 00:58:05;;;;;;;2.15;0.60;;;21.90;45.80;;;;;;4995457;28;20038;-69
2022/02/12 01:00:33;;;;;;;0.70;0.52;;;21.80;45.90;;;;;;4993119;28;20541;-67
2022/02/12 01:03:01;;;;;;;1.10;0.63;;;21.80;45.90;;;;;;4999307;28;20168;-70
2022/02/12 01:05:27;;;;;;;0.57;0.57;;;21.80;45.90;;;;;;4998957;28;20026;-69
2022/02/12 01:07:53;;;;;;;1.25;0.63;;;21.80;45.90;;;;;;4999311;28;20038;-69
2022/02/12 01:10:18;;;;;;;1.33;0.70;;;21.80;45.90;;;;;;5014594;28;20049;-69
2022/02/12 01:12:44;;;;;;;0.93;0.80;;;21.80;46.00;;;;;;4999875;28;20035;-69
2022/02/12 01:15:10;;;;;;;0.68;0.68;;;21.70;45.90;;;;;;4998233;28;20061;-69
2022/02/12 01:17:37;;;;;;;1.20;0.80;;;21.70;45.90;;;;;;4997774;28;20034;-69
2022/02/12 01:20:03;;;;;;;1.60;0.70;;;21.70;46.00;;;;;;4998985;28;20034;-69
2022/02/12 01:22:29;;;;;;;0.70;0.63;;;21.70;46.00;;;;;;5004754;28;20910;-70
2022/02/12 01:24:55;;;;;;;0.77;0.63;;;21.60;46.00;;;;;;4999605;28;20026;-69
2022/02/12 01:27:21;;;;;;;0.70;0.60;;;21.60;46.00;;;;;;4998918;28;20030;-70
2022/02/12 01:29:47;;;;;;;0.80;0.68;;;21.60;46.00;;;;;;4996316;28;20060;-70
2022/02/12 01:32:13;;;;;;;1.10;0.75;;;21.60;46.00;;;;;;4998753;28;20064;-70
2022/02/12 01:34:39;;;;;;;1.00;0.75;;;21.60;46.00;;;;;;5005294;28;20468;-69
2022/02/12 01:37:06;;;;;;;1.02;0.73;;;21.60;46.10;;;;;;5000454;28;20029;-67
2022/02/12 01:39:32;;;;;;;1.60;0.70;;;21.60;46.10;;;;;;4997541;28;20038;-67
2022/02/12 01:41:58;;;;;;;1.20;0.60;;;21.50;46.10;;;;;;4998887;28;20042;-68
2022/02/12 01:44:43;;;;;;;1.27;0.70;;;21.50;46.00;;;;;;5012587;28;20036;-69
2022/02/12 01:47:10;;;;;;;1.33;0.80;;;21.50;46.10;;;;;;4998511;28;20026;-69
2022/02/12 01:49:36;;;;;;;0.73;0.70;;;21.50;46.10;;;;;;4998961;28;20030;-69
2022/02/12 01:52:05;;;;;;;0.68;0.68;;;21.50;46.10;;;;;;4998935;28;20077;-69
2022/02/12 01:54:31;;;;;;;1.85;0.77;;;21.50;46.20;;;;;;5014458;28;20412;-69
2022/02/12 01:57:01;;;;;;;0.93;0.75;;;21.50;46.20;;;;;;4999533;28;20030;-69
2022/02/12 01:59:27;;;;;;;1.00;0.70;;;21.50;46.20;;;;;;4997779;28;20057;-69
2022/02/12 02:01:53;;;;;;;2.00;0.77;;;21.40;46.10;;;;;;4997336;28;20703;-69
2022/02/12 02:04:20;;;;;;;0.77;0.70;;;21.50;46.20;;;;;;4998262;28;20062;-69
2022/02/12 02:06:47;;;;;;;1.25;0.70;;;21.40;46.10;;;;;;4998729;28;20101;-66
2022/02/12 02:09:17;;;;;;;1.23;0.77;;;21.40;46.10;;;;;;4998889;28;20471;-66
2022/02/12 02:11:44;;;;;;;0.70;0.70;;;21.40;46.10;;;;;;5009611;28;20025;-70
2022/02/12 02:14:13;;;;;;;1.00;0.70;;;21.40;46.10;;;;;;4996061;28;20466;-70
2022/02/12 02:16:40;;;;;;;1.20;0.70;;;21.40;46.20;;;;;;4996071;28;20084;-70
2022/02/12 02:19:07;;;;;;;0.75;0.70;;;21.40;46.20;;;;;;4998273;28;20771;-69
2022/02/12 02:21:35;;;;;;;1.30;0.70;;;21.40;46.70;;;;;;4997946;28;20084;-69
2022/02/12 02:24:01;;;;;;;0.85;0.60;;;21.30;46.20;;;;;;4998765;28;20030;-69
2022/02/12 02:26:26;;;;;;;1.30;0.80;;;21.30;46.20;;;;;;4998457;28;20041;-69
2022/02/12 02:28:52;;;;;;;0.82;0.63;;;21.30;46.20;;;;;;5002538;28;20026;-69
2022/02/12 02:31:18;;;;;;;0.75;0.70;;;21.30;46.30;;;;;;4994190;28;20057;-67
2022/02/12 02:33:43;;;;;;;0.82;0.60;;;21.30;46.30;;;;;;4996000;28;20034;-70
2022/02/12 02:36:10;;;;;;;0.93;0.75;;;21.30;46.30;;;;;;4998376;28;20056;-67
2022/02/12 02:38:36;;;;;;;0.90;0.70;;;21.30;46.30;;;;;;4996035;28;20487;-69
2022/02/12 02:41:02;;;;;;;0.98;0.70;;;21.30;46.30;;;;;;4998889;28;20116;-68
2022/02/12 02:43:29;;;;;;;0.70;0.68;;;21.20;46.20;;;;;;4997995;28;20074;-67
2022/02/12 02:45:54;;;;;;;1.13;0.70;;;21.20;46.20;;;;;;4995066;28;20022;-69
2022/02/12 02:48:20;;;;;;;0.93;0.63;;;21.20;46.20;;;;;;4997732;28;20105;-69
2022/02/12 02:56:15;;;;;;;1.92;0.80;;;21.20;46.30;;;;;;4997692;28;20036;-69
2022/02/12 02:58:46;;;;;;;0.75;0.70;;;21.20;46.30;;;;;;4995737;28;20038;-70
2022/02/12 03:01:22;;;;;;;0.57;0.50;;;21.20;46.30;;;;;;4996188;28;20070;-67
2022/02/12 03:03:50;;;;;;;0.88;0.80;;;21.10;46.30;;;;;;4996235;28;20035;-69
2022/02/12 03:06:18;;;;;;;1.15;0.70;;;21.10;46.30;;;;;;4997917;28;20068;-69
2022/02/12 03:08:44;;;;;;;0.90;0.80;;;21.10;46.80;;;;;;4995587;28;20037;-69
2022/02/12 03:11:11;;;;;;;0.93;0.60;;;21.10;46.30;;;;;;4998105;28;20284;-66
2022/02/12 03:13:38;;;;;;;0.57;0.55;;;21.10;46.30;;;;;;4996439;28;20033;-70
2022/02/12 03:16:04;;;;;;;0.88;0.63;;;21.10;46.40;;;;;;4997425;28;20070;-70
2022/02/12 03:18:32;;;;;;;0.90;0.70;;;21.10;46.30;;;;;;4996142;28;20030;-69
2022/02/12 03:20:57;;;;;;;0.73;0.60;;;21.10;46.30;;;;;;4997134;28;20032;-69
2022/02/12 03:23:23;;;;;;;0.57;0.57;;;21.10;46.30;;;;;;4998171;28;20038;-69
2022/02/12 03:25:48;;;;;;;0.75;0.70;;;21.10;46.30;;;;;;4997839;28;20022;-69
2022/02/12 03:28:14;;;;;;;0.90;0.70;;;21.10;46.40;;;;;;4996353;28;20498;-70
2022/02/12 03:30:43;;;;;;;1.45;0.80;;;21.10;46.90;;;;;;4995253;28;20067;-66
2022/02/12 03:33:09;;;;;;;0.80;0.70;;;21.00;46.30;;;;;;4996198;28;20067;-69
2022/02/12 03:35:35;;;;;;;1.25;0.70;;;21.00;46.40;;;;;;5012817;28;20030;-70
2022/02/12 03:38:11;;;;;;;1.17;0.80;;;21.00;46.30;;;;;;4996144;28;20036;-66
2022/02/12 03:40:39;;;;;;;1.27;0.80;;;21.00;46.40;;;;;;4997640;28;20056;-67
2022/02/12 03:43:06;;;;;;;1.17;0.70;;;21.00;46.40;;;;;;4997262;28;20049;-70
2022/02/12 03:45:32;;;;;;;0.82;0.68;;;21.00;46.40;;;;;;4994962;28;20014;-69
2022/02/12 03:47:58;;;;;;;0.77;0.70;;;21.00;46.40;;;;;;5011344;28;20449;-68
2022/02/12 03:50:24;;;;;;;0.93;0.70;;;21.00;46.40;;;;;;4997949;28;20018;-67
2022/02/12 03:52:49;;;;;;;0.90;0.65;;;21.00;46.40;;;;;;4996176;28;20076;-69
2022/02/12 03:55:16;;;;;;;1.30;0.75;;;21.00;46.40;;;;;;5011175;28;20130;-70
2022/02/12 03:57:42;;;;;;;1.02;0.60;;;21.00;46.70;;;;;;4997269;28;20034;-67
2022/02/12 04:00:12;;;;;;;0.80;0.60;;;21.00;46.40;;;;;;4995286;28;20034;-69
2022/02/12 04:02:38;;;;;;;1.10;0.70;;;20.90;46.40;;;;;;4996470;28;20069;-69
2022/02/12 04:05:04;;;;;;;0.80;0.60;;;20.90;46.40;;;;;;4996551;28;20035;-70
2022/02/12 04:07:30;;;;;;;1.35;0.70;;;20.90;46.40;;;;;;4996077;28;20626;-70
2022/02/12 04:09:56;;;;;;;1.02;0.73;;;20.90;46.40;;;;;;4995755;28;20030;-69
2022/02/12 04:12:21;;;;;;;0.68;0.68;;;20.90;46.40;;;;;;5010192;28;20534;-69
2022/02/12 04:14:48;;;;;;;1.20;0.77;;;20.90;46.40;;;;;;4995345;28;20034;-69
2022/02/12 04:17:14;;;;;;;1.15;0.70;;;20.90;46.40;;;;;;4996583;28;20032;-69
2022/02/12 04:19:40;;;;;;;1.48;0.90;;;20.90;46.40;;;;;;5000912;28;20483;-66
2022/02/12 04:22:06;;;;;;;0.82;0.70;;;20.90;46.40;;;;;;4995690;28;20030;-69
2022/02/12 04:24:31;;;;;;;1.33;0.93;;;20.90;46.40;;;;;;4996611;28;20059;-66
2022/02/12 04:26:57;;;;;;;1.10;0.70;;;20.90;46.40;;;;;;4996499;28;20033;-67
2022/02/12 04:29:22;;;;;;;1.20;0.70;;;20.90;46.50;;;;;;4994759;28;20038;-68
2022/02/12 04:31:48;;;;;;;0.80;0.70;;;20.90;46.40;;;;;;4994489;28;20465;-69
2022/02/12 04:34:14;;;;;;;1.15;0.80;;;20.90;46.50;;;;;;5011924;28;20034;-68
2022/02/12 04:36:39;;;;;;;0.70;0.70;;;20.90;46.50;;;;;;4999323;28;20034;-67
2022/02/12 04:39:05;;;;;;;1.05;0.70;;;20.90;46.50;;;;;;4997630;28;20029;-69
2022/02/12 04:41:31;;;;;;;0.68;0.60;;;20.80;46.40;;;;;;4999893;28;20037;-67
2022/02/12 04:43:56;;;;;;;0.80;0.70;;;20.80;46.50;;;;;;4998474;28;20647;-69
2022/02/12 04:46:22;;;;;;;0.80;0.60;;;20.80;46.50;;;;;;5014018;28;20029;-67
2022/02/12 04:48:49;;;;;;;0.77;0.70;;;20.80;46.50;;;;;;4999378;28;20506;-69
2022/02/12 04:51:18;;;;;;;0.80;0.70;;;20.80;46.50;;;;;;5000473;28;20638;-69
2022/02/12 04:53:44;;;;;;;1.30;0.90;;;20.80;46.50;;;;;;5000084;28;20041;-69
2022/02/12 04:56:10;;;;;;;0.90;0.70;;;20.80;46.50;;;;;;5000657;28;20034;-68
2022/02/12 04:58:36;;;;;;;1.23;0.75;;;20.80;46.50;;;;;;4998596;28;20045;-69
2022/02/12 05:01:01;;;;;;;1.33;0.80;;;20.80;46.50;;;;;;5011468;28;20514;-69
2022/02/12 05:03:27;;;;;;;1.25;0.70;;;20.80;46.50;;;;;;4999198;28;20512;-66
2022/02/12 05:05:53;;;;;;;0.82;0.60;;;20.80;46.50;;;;;;5014367;28;20483;-69
2022/02/12 05:08:18;;;;;;;0.60;0.60;;;20.80;46.50;;;;;;5000414;28;20026;-68
2022/02/12 05:10:44;;;;;;;0.93;0.70;;;20.80;46.60;;;;;;4998190;28;20025;-67
2022/02/12 05:13:09;;;;;;;1.10;0.70;;;20.80;46.60;;;;;;4999201;28;20031;-68
2022/02/12 05:15:35;;;;;;;1.02;0.70;;;20.80;46.60;;;;;;4997664;28;20483;-69
2022/02/12 05:18:01;;;;;;;0.80;0.60;;;20.80;46.60;;;;;;4999500;28;20035;-69
2022/02/12 05:20:27;;;;;;;0.80;0.60;;;20.70;46.60;;;;;;4999080;28;20018;-69
2022/02/12 05:22:52;;;;;;;0.88;0.68;;;20.80;46.60;;;;;;4999141;28;20062;-69
2022/02/12 05:25:18;;;;;;;0.65;0.60;;;20.70;46.60;;;;;;4999913;28;20113;-69
2022/02/12 05:27:44;;;;;;;0.73;0.68;;;20.70;46.60;;;;;;4999780;28;20038;-69
2022/02/12 05:30:10;;;;;;;0.95;0.77;;;20.70;46.70;;;;;;4995323;28;20030;-69
2022/02/12 05:32:36;;;;;;;1.02;0.70;;;20.70;46.60;;;;;;4998169;28;20033;-69
2022/02/12 05:35:02;;;;;;;0.80;0.60;;;20.70;46.60;;;;;;4999703;28;20030;-69
2022/02/12 05:37:28;;;;;;;0.82;0.60;;;20.70;46.60;;;;;;4998632;28;20026;-69
2022/02/12 05:39:53;;;;;;;0.70;0.60;;;20.70;46.60;;;;;;4997351;28;20034;-68
2022/02/12 05:42:19;;;;;;;1.02;0.70;;;20.70;46.70;;;;;;4999950;28;20109;-66
2022/02/12 05:44:45;;;;;;;0.70;0.60;;;20.70;46.60;;;;;;4998318;28;20055;-69
2022/02/12 05:47:10;;;;;;;0.93;0.75;;;20.70;47.20;;;;;;5000987;28;20018;-69
2022/02/12 05:49:36;;;;;;;0.88;0.75;;;20.70;46.70;;;;;;4999678;28;20477;-66
2022/02/12 05:52:02;;;;;;;1.33;0.70;;;20.70;46.70;;;;;;5011212;28;20797;-66
2022/02/12 05:54:28;;;;;;;0.90;0.70;;;20.70;46.70;;;;;;5000482;28;20114;-69
2022/02/12 05:56:53;;;;;;;0.95;0.70;;;20.70;46.70;;;;;;4999011;28;20428;-69
2022/02/12 05:59:19;;;;;;;0.60;0.60;;;20.70;46.70;;;;;;4997510;28;20057;-69
2022/02/12 06:01:45;;;;;;;0.60;0.60;;;20.70;46.70;;;;;;4996444;28;20061;-69
2022/02/12 06:04:10;;;;;;;0.60;0.60;;;20.70;46.70;;;;;;4999420;28;20125;-69
2022/02/12 06:06:36;;;;;;;0.90;0.70;;;20.70;46.70;;;;;;4998910;28;20061;-69
2022/02/12 06:09:02;;;;;;;0.70;0.70;;;20.70;46.70;;;;;;4999883;28;20022;-69
2022/02/12 06:11:28;;;;;;;0.77;0.60;;;20.70;46.70;;;;;;4998844;28;20061;-69
2022/02/12 06:13:54;;;;;;;0.90;0.70;;;20.60;46.70;;;;;;4996763;28;20109;-69
2022/02/12 06:16:21;;;;;;;0.90;0.68;;;20.70;46.80;;;;;;4997396;28;20045;-66
2022/02/12 06:18:47;;;;;;;0.65;0.65;;;20.60;46.70;;;;;;4997488;28;20034;-66
2022/02/12 06:21:13;;;;;;;1.38;0.80;;;20.60;46.70;;;;;;4997639;28;20029;-69
2022/02/12 06:23:38;;;;;;;0.85;0.68;;;20.60;46.70;;;;;;4998141;28;20022;-69
2022/02/12 06:26:06;;;;;;;0.70;0.60;;;20.60;46.80;;;;;;4999036;28;20383;-69
2022/02/12 06:28:32;;;;;;;1.33;0.80;;;20.60;46.70;;;;;;4997089;28;20366;-69
2022/02/12 06:30:58;;;;;;;1.50;0.70;;;20.60;46.70;;;;;;4994721;28;20030;-69
2022/02/12 06:33:24;;;;;;;0.80;0.60;;;20.60;46.70;;;;;;4998297;28;20030;-67
2022/02/12 06:35:49;;;;;;;0.90;0.60;;;20.60;46.80;;;;;;4997962;28;20088;-69
2022/02/12 06:38:15;;;;;;;0.68;0.60;;;20.60;46.80;;;;;;4998290;28;20037;-69
2022/02/12 06:40:41;;;;;;;0.68;0.60;;;20.60;46.70;;;;;;4996585;28;20117;-69
2022/02/12 06:43:07;;;;;;;0.60;0.60;;;20.60;46.70;;;;;;4996851;28;20030;-69
2022/02/12 06:45:34;;;;;;;0.82;0.63;;;20.60;46.70;;;;;;4996067;28;20081;-67
2022/02/12 06:47:59;;;;;;;1.00;0.70;;;20.60;46.80;;;;;;5012919;28;20065;-67
2022/02/12 06:50:25;;;;;;;1.42;0.80;;;20.60;46.80;;;;;;5001739;28;20509;-71
2022/02/12 06:52:51;;;;;;;1.10;0.70;;;20.60;46.80;;;;;;4995417;28;20038;-69
2022/02/12 06:55:16;;;;;;;0.98;0.70;;;20.60;46.80;;;;;;4997514;28;20038;-70
2022/02/12 06:57:42;;;;;;;1.10;0.70;;;20.60;46.70;;;;;;4992556;28;20487;-69
2022/02/12 07:00:08;;;;;;;0.95;0.60;;;20.60;46.80;;;;;;4992189;28;20537;-69
2022/02/12 07:02:34;;;;;;;0.98;0.70;;;20.60;46.80;;;;;;4994647;28;20081;-69
2022/02/12 07:05:00;;;;;;;0.77;0.65;;;20.60;46.70;;;;;;4993665;28;20120;-69
2022/02/12 07:07:26;;;;;;;1.25;0.70;;;20.60;46.70;;;;;;4995694;28;20014;-70
2022/02/12 07:09:51;;;;;;;1.20;0.80;;;20.60;46.70;;;;;;5009627;28;20026;-69
2022/02/12 07:12:17;;;;;;;1.20;0.80;;;20.60;46.80;;;;;;4995550;28;20112;-69
2022/02/12 07:14:43;;;;;;;0.85;0.63;;;20.60;46.70;;;;;;4993708;28;20034;-70
2022/02/12 07:17:09;;;;;;;0.73;0.60;;;20.60;46.80;;;;;;4992541;28;20026;-69
2022/02/12 07:19:37;;;;;;;1.25;0.70;;;20.60;46.80;;;;;;4994445;28;20021;-69
2022/02/12 07:22:03;;;;;;;0.95;0.70;;;20.60;46.80;;;;;;4995936;28;20111;-69
2022/02/12 07:24:29;;;;;;;0.98;0.70;;;20.50;46.80;;;;;;4996396;28;20045;-67
2022/02/12 07:26:54;;;;;;;0.98;0.70;;;20.50;46.70;;;;;;4994609;28;20026;-69
2022/02/12 07:29:20;;;;;;;1.25;0.73;;;20.50;46.70;;;;;;4993413;28;20033;-69
2022/02/12 07:31:46;;;;;;;0.82;0.65;;;20.50;46.80;;;;;;4989786;28;20498;-69
2022/02/12 07:34:16;;;;;;;0.80;0.63;;;20.50;46.70;;;;;;4995415;28;20033;-69
2022/02/12 07:36:42;;;;;;;1.02;0.70;;;20.50;46.70;;;;;;4995220;28;20252;-70
2022/02/12 07:39:08;;;;;;;1.00;0.90;;;20.50;46.80;;;;;;5007454;28;20053;-70
2022/02/12 07:41:35;;;;;;;0.90;0.70;;;20.50;46.80;;;;;;4993321;28;20022;-69
2022/02/12 07:44:02;;;;;;;0.90;0.68;;;20.50;46.80;;;;;;5006901;28;20034;-70
2022/02/12 07:46:28;;;;;;;1.70;0.80;;;20.50;46.80;;;;;;4992558;28;20480;-69
2022/02/12 07:48:53;;;;;;;0.70;0.70;;;20.50;47.30;;;;;;4992733;28;20026;-66
2022/02/12 07:51:19;;;;;;;1.15;0.70;;;20.50;46.80;;;;;;4994681;28;20022;-69
2022/02/12 07:53:44;;;;;;;0.75;0.70;;;20.50;46.80;;;;;;4993244;28;20044;-69
2022/02/12 07:56:10;;;;;;;0.90;0.70;;;20.50;46.80;;;;;;4995467;28;20040;-69
2022/02/12 07:58:37;;;;;;;0.82;0.63;;;20.50;46.80;;;;;;4992525;28;20527;-70
2022/02/12 08:01:03;;;;;;;1.05;0.70;;;20.50;46.80;;;;;;4992564;28;20154;-70
2022/02/12 08:03:29;;;;;;;0.70;0.70;;;20.50;46.80;;;;;;4991829;28;20209;-69
2022/02/12 08:05:54;;;;;;;1.13;0.80;;;20.50;46.80;;;;;;4992838;28;20027;-69
2022/02/12 08:08:20;;;;;;;0.90;0.68;;;20.50;46.80;;;;;;4992788;28;20560;-70
2022/02/12 08:13:29;;;;;;;1.35;0.90;;;20.50;46.90;;;;;;4996706;28;20041;-67
2022/02/12 08:15:55;;;;;;;0.73;0.60;;;20.50;46.90;;;;;;4996938;28;20022;-70
2022/02/12 08:18:21;;;;;;;0.70;0.68;;;20.40;46.80;;;;;;4998748;28;20025;-69
2022/02/12 08:20:47;;;;;;;1.23;0.70;;;20.40;47.40;;;;;;4998029;28;20025;-70
2022/02/12 08:23:12;;;;;;;1.48;0.75;;;20.40;46.80;;;;;;4999107;28;20334;-70
2022/02/12 08:25:38;;;;;;;1.60;0.80;;;20.40;46.90;;;;;;4999216;28;20058;-70
2022/02/12 08:28:04;;;;;;;1.17;0.75;;;20.40;46.90;;;;;;4996134;28;20030;-69
2022/02/12 08:30:29;;;;;;;1.17;0.70;;;20.50;46.90;;;;;;4994939;28;20065;-70
2022/02/12 08:32:55;;;;;;;0.90;0.70;;;20.50;46.90;;;;;;4994640;28;20033;-70
2022/02/12 08:35:21;;;;;;;1.08;0.70;;;20.40;46.90;;;;;;4996634;28;20031;-69
2022/02/12 08:37:46;;;;;;;1.08;0.70;;;20.40;46.90;;;;;;4996546;28;20494;-69
2022/02/12 08:40:14;;;;;;;1.20;0.80;;;20.40;46.90;;;;;;4997974;28;20038;-69
2022/02/12 08:42:41;;;;;;;0.77;0.68;;;20.40;47.00;;;;;;4997075;28;20561;-70
2022/02/12 08:45:09;;;;;;;1.25;0.70;;;20.40;46.90;;;;;;4994191;28;20037;-70
2022/02/12 08:47:35;;;;;;;1.73;0.70;;;20.40;47.00;;;;;;4996534;28;20042;-68
2022/02/12 08:50:00;;;;;;;0.98;0.70;;;20.40;47.00;;;;;;4996194;28;20030;-70
2022/02/12 08:52:26;;;;;;;0.93;0.65;;;20.40;47.00;;;;;;4996472;28;20061;-67
2022/02/12 08:54:52;;;;;;;0.90;0.70;;;20.40;47.00;;;;;;4997867;28;20029;-69
2022/02/12 08:57:18;;;;;;;0.77;0.70;;;20.40;47.10;;;;;;4995907;28;20037;-70
2022/02/12 08:59:43;;;;;;;1.60;0.80;;;20.40;47.00;;;;;;5009471;28;20408;-70
2022/02/12 09:02:09;;;;;;;0.77;0.68;;;20.40;47.10;;;;;;4993645;28;20455;-69
2022/02/12 09:04:35;;;;;;;1.83;0.60;;;20.40;47.10;;;;;;4996444;28;20445;-70
2022/02/12 09:07:01;;;;;;;1.20;0.90;;;20.30;47.10;;;;;;4997161;28;20030;-70
2022/02/12 09:09:26;;;;;;;1.17;0.75;;;20.40;47.20;;;;;;4994897;28;20084;-67
2022/02/12 09:11:52;;;;;;;1.40;0.73;;;20.40;47.20;;;;;;5010268;28;20030;-70
2022/02/12 09:14:18;;;;;;;1.25;0.70;;;20.30;47.10;;;;;;4994965;28;20286;-69
2022/02/12 09:16:43;;;;;;;1.50;0.80;;;20.40;47.20;;;;;;4993727;28;20022;-70
2022/02/12 09:19:10;;;;;;;1.00;0.80;;;20.30;47.20;;;;;;4994341;28;20128;-69
2022/02/12 09:21:36;;;;;;;1.30;0.77;;;20.40;47.30;;;;;;4995342;28;20773;-69
2022/02/12 09:24:02;;;;;;;1.05;0.70;;;20.40;47.30;;;;;;4994826;28;20396;-69
2022/02/12 09:26:32;;;;;;;1.33;0.70;;;20.30;47.30;;;;;;4995307;28;20501;-70
2022/02/12 09:29:03;;;;;;;0.88;0.85;;;20.30;47.30;;;;;;4993736;28;20058;-68
2022/02/12 09:31:29;;;;;;;1.33;0.75;;;20.30;47.30;;;;;;5008990;28;20034;-69
2022/02/12 09:33:56;;;;;;;1.75;0.80;;;20.40;47.40;;;;;;4996347;28;20719;-70
2022/02/12 09:36:21;;;;;;;1.23;0.70;;;20.30;47.40;;;;;;4996968;28;20037;-69
2022/02/12 09:38:47;;;;;;;1.67;0.90;;;20.30;47.40;;;;;;4995648;28;20599;-68
2022/02/12 09:41:14;;;;;;;1.75;0.80;;;20.30;47.50;;;;;;4996981;28;20041;-67
2022/02/12 09:43:42;;;;;;;1.58;0.80;;;20.30;47.50;;;;;;4993617;28;20732;-69
2022/02/12 09:46:22;;;;;;;1.90;0.90;;;20.30;47.50;;;;;;4993958;28;20073;-70
2022/02/12 09:48:48;;;;;;;1.48;0.85;;;20.30;47.60;;;;;;4996430;28;20148;-70
2022/02/12 09:51:14;;;;;;;1.58;0.80;;;20.30;47.60;;;;;;4994203;28;20029;-70
2022/02/12 09:53:40;;;;;;;2.38;0.93;;;20.30;47.70;;;;;;4994848;28;20030;-69
2022/02/12 09:56:06;;;;;;;1.85;0.90;;;20.30;47.70;;;;;;4994797;28;20215;-70
2022/02/12 09:58:31;;;;;;;1.02;0.80;;;20.30;47.70;;;;;;4994155;28;20052;-69
2022/02/12 10:00:57;;;;;;;1.40;0.90;;;20.30;47.80;;;;;;4991549;28;20042;-68
2022/02/12 10:03:23;;;;;;;1.35;0.80;;;20.30;47.80;;;;;;4994751;28;20081;-67
2022/02/12 10:05:53;;;;;;;1.60;1.05;;;20.30;47.80;;;;;;5009259;28;20044;-69
2022/02/12 10:08:21;;;;;;;1.65;0.85;;;20.30;47.80;;;;;;4996604;28;20022;-69
2022/02/12 10:10:49;;;;;;;2.35;1.05;;;20.30;47.80;;;;;;4994307;28;20018;-68
2022/02/12 10:13:30;;;;;;;2.50;1.00;;;20.30;47.80;;;;;;4997007;28;20132;-69
2022/02/12 10:16:01;;;;;;;1.30;0.90;;;20.30;47.80;;;;;;4993333;28;20076;-69
2022/02/12 10:18:29;;;;;;;1.77;1.00;;;20.30;47.80;;;;;;4995176;28;20030;-69
2022/02/12 10:20:56;;;;;;;2.42;1.10;;;20.30;47.80;;;;;;4993496;28;20030;-69
2022/02/12 10:23:27;;;;;;;1.20;0.70;;;20.30;47.70;;;;;;4994128;28;20034;-69
2022/02/12 10:26:02;;;;;;;1.70;1.10;;;20.30;47.80;;;;;;4993799;28;20018;-66
2022/02/12 10:28:32;;;;;;;2.22;0.85;;;20.30;47.80;;;;;;4993852;28;20138;-66
2022/02/12 10:30:59;;;;;;;1.88;1.02;;;20.30;47.70;;;;;;4988729;28;20083;-69
2022/02/12 10:33:26;;;;;;;2.28;1.00;;;20.30;47.70;;;;;;4994260;28;22306;-70
2022/02/12 10:35:56;;;;;;;2.63;0.90;;;20.30;47.70;;;;;;4992531;28;20026;-69
2022/02/12 10:38:29;;;;;;;3.28;1.02;;;20.30;47.70;;;;;;4996475;28;20120;-69
2022/02/12 10:41:13;;;;;;;2.10;1.00;;;20.30;47.70;;;;;;4995097;28;20120;-69
2022/02/12 10:43:40;;;;;;;2.95;1.05;;;20.30;47.70;;;;;;4992038;28;20057;-70
2022/02/12 10:46:06;;;;;;;2.78;1.13;;;20.30;47.70;;;;;;5007232;28;20030;-70
2022/02/12 10:48:35;;;;;;;3.05;0.90;;;20.30;48.20;;;;;;4994622;28;20112;-67
2022/02/12 10:51:03;;;;;;;1.25;0.90;;;20.30;47.60;;;;;;5010570;28;20033;-66
2022/02/12 10:53:30;;;;;;;1.38;0.90;;;20.30;47.60;;;;;;4995486;28;20519;-70
2022/02/12 10:56:03;;;;;;;1.80;1.10;;;20.30;47.50;;;;;;4994155;28;20546;-69
2022/02/12 10:58:30;;;;;;;1.95;1.02;;;20.40;47.50;;;;;;4989777;28;20135;-70
2022/02/12 11:00:56;;;;;;;1.63;1.00;;;20.30;47.50;;;;;;4989800;28;20640;-70
2022/02/12 11:03:22;;;;;;;1.45;1.00;;;20.30;47.50;;;;;;5001027;28;20023;-68
2022/02/12 11:05:52;;;;;;;1.45;1.00;;;20.40;47.60;;;;;;5000399;28;20216;-70
2022/02/12 11:08:25;;;;;;;1.00;0.80;;;20.40;47.60;;;;;;4999313;28;20018;-68
2022/02/12 11:10:51;;;;;;;1.17;0.80;;;20.40;47.50;;;;;;4997649;28;20544;-67
2022/02/12 11:13:20;;;;;;;1.13;0.85;;;20.50;47.50;;;;;;5000023;28;20042;-68
2022/02/12 11:15:46;;;;;;;1.73;0.90;;;20.50;47.50;;;;;;4993447;28;20025;-68
2022/02/12 11:18:17;;;;;;;1.42;0.90;;;20.60;47.40;;;;;;4991436;28;20210;-70
2022/02/12 11:20:44;;;;;;;1.75;0.90;;;20.60;47.30;;;;;;4999045;28;20026;-67
2022/02/12 11:23:24;;;;;;;1.85;1.00;;;20.70;47.20;;;;;;4989082;28;20030;-68
2022/02/12 11:25:50;;;;;;;;;;;20.70;47.20;;;;;;5000353;28;20084;-69
2022/02/12 11:28:17;;;;;;;1.58;0.98;;;20.80;47.20;;;;;;4997678;28;19952;-71
2022/02/12 11:30:44;;;;;;;1.80;1.10;;;20.80;47.10;;;;;;5010207;28;20473;-69
2022/02/12 11:33:22;;;;;;;1.20;0.90;;;20.90;47.10;;;;;;4994122;28;20037;-68
2022/02/12 11:36:12;;;;;;;1.10;0.80;;;20.90;47.10;;;;;;5002304;28;20041;-67
2022/02/12 11:38:40;;;;;;;2.00;0.98;;;20.90;47.10;;;;;;4999658;28;20034;-69
2022/02/12 11:41:27;;;;;;;2.63;1.50;;;21.00;47.10;;;;;;5001184;28;20029;-69
2022/02/12 11:43:54;;;;;;;1.42;1.00;;;21.00;47.00;;;;;;4998201;28;20038;-68
2022/02/12 11:46:51;;;;;;;1.90;1.10;;;21.10;47.00;;;;;;5000951;28;20563;-68
2022/02/12 11:49:28;;;;;;;2.88;1.00;;;21.10;46.90;;;;;;5000354;28;20071;-70
2022/02/12 11:51:55;;;;;;;1.00;0.80;;;21.10;47.00;;;;;;4995980;28;20034;-70
2022/02/12 11:54:59;;;;;;;2.20;1.00;;;21.20;47.00;;;;;;5002503;28;20203;-70
2022/02/12 11:57:27;;;;;;;1.42;0.80;;;21.20;46.90;;;;;;4998355;28;20144;-70
2022/02/12 11:59:59;;;;;;;1.40;0.80;;;21.20;46.90;;;;;;4997318;28;20038;-69
2022/02/12 12:02:40;;;;;;;1.50;0.90;;;21.20;46.90;;;;;;5000668;28;20090;-70
2022/02/12 12:05:15;;;;;;;1.85;0.90;;;21.20;46.90;;;;;;5001268;28;20132;-70
2022/02/12 12:08:06;;;;;;;1.02;0.80;;;21.30;46.90;;;;;;4997364;28;20261;-70
2022/02/12 12:10:36;;;;;;;1.20;0.70;;;21.30;46.90;;;;;;4998100;28;20586;-69
2022/02/12 12:13:10;;;;;;;1.52;0.80;;;21.30;46.90;;;;;;4999678;28;20022;-70
2022/02/12 12:15:37;;;;;;;1.15;0.80;;;21.30;46.80;;;;;;4996982;28;20396;-70
2022/02/12 12:18:05;;;;;;;1.88;0.95;;;21.40;46.80;;;;;;4999030;28;20030;-70
2022/02/12 12:20:36;;;;;;;1.75;1.00;;;21.40;46.80;;;;;;4993960;28;20034;-70
2022/02/12 12:23:12;;;;;;;2.08;0.95;;;21.40;46.70;;;;;;4998214;28;20030;-70
2022/02/12 12:26:02;;;;;;;1.30;0.80;;;21.40;46.70;;;;;;4999104;28;20069;-70
2022/02/12 12:28:31;;;;;;;1.52;0.90;;;21.40;46.70;;;;;;4997954;28;20557;-70
2022/02/12 12:30:58;;;;;;;1.73;0.80;;;21.40;46.60;;;;;;4997951;28;20046;-70
2022/02/12 12:33:28;;;;;;;1.00;0.70;;;21.40;46.60;;;;;;4997206;28;20033;-70
2022/02/12 12:35:55;;;;;;;1.77;0.95;;;21.40;46.50;;;;;;5000475;28;20027;-70
2022/02/12 12:38:38;;;;;;;1.95;0.90;;;21.50;46.60;;;;;;4998849;28;20026;-70
2022/02/12 12:41:42;;;;;;;1.30;0.80;;;21.50;46.60;;;;;;4999032;28;20107;-70
2022/02/12 12:44:10;;;;;;;1.58;0.90;;;21.50;46.50;;;;;;4979984;28;20522;-70
2022/02/12 12:46:37;;;;;;;1.23;0.85;;;21.50;46.50;;;;;;5006412;28;20037;-66
2022/02/12 12:49:04;;;;;;;1.90;0.85;;;21.50;46.60;;;;;;5003988;28;20394;-69
2022/02/12 12:51:30;;;;;;;1.92;0.90;;;21.50;46.60;;;;;;4989442;28;20037;-70
2022/02/12 12:53:55;;;;;;;1.40;0.85;;;21.50;46.60;;;;;;5000489;28;20189;-68
2022/02/12 12:56:22;;;;;;;1.20;0.70;;;21.50;46.60;;;;;;4999410;28;20026;-70
2022/02/12 12:59:02;;;;;;;1.38;0.90;;;21.50;46.60;;;;;;5001607;28;20037;-69